LESO/EAS METAR and TAF weather

Enter ICAO airport designator
Station Type Date Time Source
LESO METAR 2018/12/10 09:00 UTC NOAA

LESO 100900Z 12003KT 080V170 9000 FEW022 SCT040 BKN046 11/09 Q1034


Station Type Date Time Source
LESO Decoded METAR 2018/12/10 09:00 UTC NOAA

San Sebastian / Fuenterrabia, Spain (LESO) 43-21N 001-48W 8M
Dec 10, 2018 - 04:00 AM EST / 2018.12.10 0900 UTC
Wind: from the ESE (120 degrees) at 3 MPH (3 KT) (direction variable):0
Visibility: 5 mile(s):0
Sky conditions: mostly cloudy
Temperature: 51 F (11 C)
Dew Point: 48 F (9 C)
Relative Humidity: 87%
Pressure (altimeter): 30.53 in. Hg (1034 hPa)
ob: LESO 100900Z 12003KT 080V170 9000 FEW022 SCT040 BKN046 11/09 Q1034
cycle: 9

Station Type Date Time Source
LESO TAF 2018/12/10 06:27 UTC NOAA

TAF LESO 100500Z 1006/1106 VRB05KT 8000 BKN040 TX16/1013Z TN08/1106Z PROB30
TEMPO 1006/1012 3000 -RADZ BR BKN014 PROB40
TEMPO 1015/1018 03010KT


Example: see airport list